Relevés horaires Matro (Suisse)


Relevés horaires à Matro - Mercredi 16 Oct. 2019
Heure UTC1 Température [°C] Vent [km/h] Hum. [%] Pres.4 [hPa] Visi. [Km] Nébu. [octa] Préc.5 [mm] Cond.
2m. Res. Ros. Dir.2 Vit. Moy. Raf.3
23:00 2.8 -1.8 -5.4 SSE 20.4 -- 25.9 55 850(0.5/3h) -- -- -- --
22:00 3.0 -1.7 -6.0 SSE 22.2 -- 27.8 52 850(0.7/3h) -- -- -- --
21:00 3.5 -1.3 -6.1 SSE 24.1 -- 27.8 49 850(0.8/3h) -- -- -- --
20:00 4.0 -0.5 -10.0 SSE 22.2 -- 24.1 35 850(0.5/3h) -- -- -- --
19:00 4.1 0.1 -7.9 S 18.5 -- 25.9 41 850(0.4/3h) -- -- -- --
18:00 4.2 -0.2 -7.4 SSE 22.2 -- 25.9 42 850 -- -- -- --
17:00 4.7 1.1 -5.9 SSE 16.7 -- 18.5 46 850(0.4/3h) -- -- -- --
16:00 5.2 2 -4.6 S 14.8 -- 20.4 49 850(0.4/3h) -- -- -- --
15:00 5.6 2.5 -3.4 S 14.8 -- 25.9 52 850(0.3/3h) -- -- -- --
14:00 5.7 2.4 -3.8 S 16.7 -- 25.9 50 850(0.1/3h) -- -- -- --
13:00 5.4 2.6 -5.1 SSE 13.0 -- 18.5 47 850(0.4/3h) -- -- -- --
12:00 5.2 3.5 0.1 S 7.4 -- 27.8 70 850(0.6/3h) -- -- -- --
11:00 4.8 3.6 -3.5 O 5.6 -- 16.7 55 850(0.9/3h) -- -- -- --
10:00 4.8 1.5 -12.5 NNO 14.8 -- 25.9 27 850(1.2/3h) -- -- -- --
09:00 4.4 0 -15.5 NNO 22.2 -- 27.8 22 850(1.5/3h) -- -- -- --
08:00 3.4 -1 -15.8 NNO 20.4 -- 24.1 23 850(1.6/3h) -- -- -- --
07:00 2.4 -1.4 -13.9 NO 14.8 -- 20.4 29 850(1.2/3h) -- -- -- --
06:00 2.4 -1.4 -13.7 NO 14.8 -- -- 29 850(1.0/3h) -- -- -- --
05:00 1.9 -1.3 -9.9 ONO 11.1 -- 24.1 41 850(0.7/3h) -- -- -- --
04:00 1.7 -2.6 -8.0 NO 16.7 -- 27.8 48 850(0.6/3h) -- -- -- --
03:00 1.3 -3.9 -5.1 NNO 22.2 -- -- 62 850(0.3/3h) -- -- -- --
02:00 1.2 1.2 -4.1 NNO 0.0 -- -- 68 850(-0.4/3h) -- -- -- --
01:00 0.9 0.9 -3.2 NNO 0.0 -- -- 74 850(0.0/3h) -- -- -- --
00:00 0.3 0.3 -1.7 NNO 0.0 -- -- 86 850(1.2/3h) -- -- -- --

1 Coordinated Universal Time. Actuellement il est 09:00 locale et 07:00 UTC.

2 Le vent souffle depuis la direction indiquée vers la direction oposée.

3 Les rafales max. sont disponible 40 min après l'heure du relevé.

4 Pour les stations d'altitude (plus de 600m) le géopotentiel du niveau le plus proche de la pression obligatoire est indiqué.

5 Les stations disposant d'un diffuseur peuvent indiquer "trace". Cela signifie que des précipitations ont touchés le sol mais que la quantité est inférieure à 0.1 mm.

Copyright

Les données affichées sur cette page sont la propriété exclusive de Météo Suisse.

Récapitulatif de la journée
Température [°C] Vent [km/h] Ensoleillement4 [h] Precipitations totale5 [mm] Pression [Hpa]
Min1 Max.2 Moy.3 Max. Min Max.
-1.0 6.2 0 27.8 9 h 36 min 0 850.0 850.0

1 Température minimale relevée entre 18:00 UTC la veille et 18:00 UTC le jour donné.

2 Température maximale relevée entre 06:00 UTC le jour donné et 06:00 UTC le lendemain.

3 Vent moyen de la journée basé sur les relevés horaires.

4 Ensoleillement en heures relevé entre 06:00 UTC la veille et 06:00 UTC le jour donné.

5 Précipitations totales tombées entre 06:00 UTC la jour donné et 06:00 UTC le lendemain.

Graphiques horaires